createdAt,value
2017-10-02T00:00:34.851Z,1004.14
2017-10-02T00:01:34.854Z,1004.10
2017-10-02T00:02:34.854Z,1004.16
2017-10-02T00:03:34.856Z,1004.12
2017-10-02T00:04:34.854Z,1004.16
2017-10-02T00:05:34.857Z,1004.13
2017-10-02T00:06:34.858Z,1004.11
2017-10-02T00:07:34.859Z,1004.13
2017-10-02T00:08:34.860Z,1004.08
2017-10-02T00:09:34.860Z,1004.12
2017-10-02T00:10:34.862Z,1004.07
2017-10-02T00:11:34.861Z,1004.07
2017-10-02T00:12:34.863Z,1004.01
2017-10-02T00:13:34.864Z,1003.99
2017-10-02T00:14:34.865Z,1004.01
2017-10-02T00:15:34.869Z,1003.97
2017-10-02T00:16:34.866Z,1003.95
2017-10-02T00:17:34.868Z,1003.95
2017-10-02T00:18:34.869Z,1003.91
2017-10-02T00:19:34.871Z,1003.91
2017-10-02T00:20:34.870Z,1003.91
2017-10-02T00:21:34.872Z,1003.91
2017-10-02T00:22:34.873Z,1003.90
2017-10-02T00:23:34.873Z,1003.89
2017-10-02T00:24:34.875Z,1003.91
2017-10-02T00:25:34.875Z,1003.94
2017-10-02T00:26:34.877Z,1003.93
2017-10-02T00:27:34.878Z,1003.99
2017-10-02T00:28:34.877Z,1003.91
2017-10-02T00:29:34.878Z,1003.93
2017-10-02T00:30:34.880Z,1003.90
2017-10-02T00:31:34.880Z,1003.92
2017-10-02T00:32:34.880Z,1003.87
2017-10-02T00:33:34.882Z,1003.87
2017-10-02T00:34:34.884Z,1003.83
2017-10-02T00:35:34.885Z,1003.81
2017-10-02T00:36:34.884Z,1003.79
2017-10-02T00:37:34.886Z,1003.75
2017-10-02T00:38:34.886Z,1003.74
2017-10-02T00:39:34.889Z,1003.75
2017-10-02T00:40:34.888Z,1003.76
2017-10-02T00:41:34.889Z,1003.81
2017-10-02T00:42:34.890Z,1003.79
2017-10-02T00:43:34.891Z,1003.77
2017-10-02T00:44:34.892Z,1003.78
2017-10-02T00:45:34.892Z,1003.78
2017-10-02T00:46:34.892Z,1003.80
2017-10-02T00:47:34.894Z,1003.78
2017-10-02T00:48:34.896Z,1003.79
2017-10-02T00:49:34.895Z,1003.81
2017-10-02T00:50:34.898Z,1003.79
2017-10-02T00:51:34.898Z,1003.83
2017-10-02T00:52:34.900Z,1003.79
2017-10-02T00:53:34.900Z,1003.78
2017-10-02T00:54:34.899Z,1003.75
2017-10-02T00:55:34.902Z,1003.70
2017-10-02T00:56:34.901Z,1003.71
2017-10-02T00:57:34.904Z,1003.64
2017-10-02T00:58:34.903Z,1003.63
2017-10-02T00:59:34.906Z,1003.54
2017-10-02T01:00:34.905Z,1003.53
2017-10-02T01:01:34.906Z,1003.48
2017-10-02T01:02:34.908Z,1003.47
2017-10-02T01:03:34.907Z,1003.44
2017-10-02T01:04:34.911Z,1003.41
2017-10-02T01:05:34.909Z,1003.37
2017-10-02T01:06:34.911Z,1003.38
2017-10-02T01:07:34.912Z,1003.33
2017-10-02T01:08:34.913Z,1003.31
2017-10-02T01:09:34.913Z,1003.32
2017-10-02T01:10:34.914Z,1003.39
2017-10-02T01:11:34.916Z,1003.35
2017-10-02T01:12:34.915Z,1003.34
2017-10-02T01:13:34.917Z,1003.28
2017-10-02T01:14:34.917Z,1003.21
2017-10-02T01:15:34.919Z,1003.25
2017-10-02T01:16:34.918Z,1003.25
2017-10-02T01:17:34.922Z,1003.19
2017-10-02T01:18:34.920Z,1003.18
2017-10-02T01:19:34.923Z,1003.19
2017-10-02T01:20:34.922Z,1003.17
2017-10-02T01:21:34.923Z,1003.13
2017-10-02T01:22:34.924Z,1003.11
2017-10-02T01:23:34.950Z,1003.11
2017-10-02T01:24:34.925Z,1003.09
2017-10-02T01:25:34.928Z,1003.06
2017-10-02T01:26:34.928Z,1003.03
2017-10-02T01:27:34.930Z,1002.99
2017-10-02T01:28:34.929Z,1002.90
2017-10-02T01:29:34.930Z,1002.87
2017-10-02T01:30:34.930Z,1002.87
2017-10-02T01:31:34.932Z,1002.82
2017-10-02T01:32:34.932Z,1002.76
2017-10-02T01:33:34.934Z,1002.75
2017-10-02T01:34:34.933Z,1002.75
2017-10-02T01:35:34.936Z,1002.73
2017-10-02T01:36:34.935Z,1002.76
2017-10-02T01:37:34.936Z,1002.77
2017-10-02T01:38:34.939Z,1002.83
2017-10-02T01:39:34.940Z,1002.83
2017-10-02T01:40:34.940Z,1002.84
2017-10-02T01:41:34.941Z,1002.83
2017-10-02T01:42:34.942Z,1002.84
2017-10-02T01:43:34.943Z,1002.81
2017-10-02T01:44:34.942Z,1002.84
2017-10-02T01:45:34.944Z,1002.80
2017-10-02T01:46:34.944Z,1002.79
2017-10-02T01:47:34.946Z,1002.81
2017-10-02T01:48:34.946Z,1002.75
2017-10-02T01:49:34.946Z,1002.78
2017-10-02T01:50:34.948Z,1002.71
2017-10-02T01:51:34.949Z,1002.67
2017-10-02T01:52:34.949Z,1002.68
2017-10-02T01:53:34.949Z,1002.70
2017-10-02T01:54:34.955Z,1002.66
2017-10-02T01:55:34.954Z,1002.62
2017-10-02T01:56:34.952Z,1002.65
2017-10-02T01:57:34.955Z,1002.60
2017-10-02T01:58:34.956Z,1002.52
2017-10-02T01:59:34.955Z,1002.50
2017-10-02T02:00:34.956Z,1002.46
2017-10-02T02:01:34.958Z,1002.43
2017-10-02T02:02:34.958Z,1002.41
2017-10-02T02:03:34.958Z,1002.34
2017-10-02T02:04:34.958Z,1002.29
2017-10-02T02:05:34.961Z,1002.22
2017-10-02T02:06:34.961Z,1002.15
2017-10-02T02:07:34.963Z,1002.17
2017-10-02T02:08:34.962Z,1002.14
2017-10-02T02:09:34.963Z,1002.20
2017-10-02T02:10:34.964Z,1002.27
2017-10-02T02:11:34.966Z,1002.19
2017-10-02T02:12:34.967Z,1002.16
2017-10-02T02:13:34.967Z,1002.18
2017-10-02T02:14:34.967Z,1002.19
2017-10-02T02:15:34.968Z,1002.13
2017-10-02T02:16:34.967Z,1002.12
2017-10-02T02:17:34.968Z,1002.09
2017-10-02T02:18:34.970Z,1001.98
2017-10-02T02:19:34.970Z,1002.06
2017-10-02T02:20:34.971Z,1002.02
2017-10-02T02:21:34.972Z,1001.96
2017-10-02T02:22:34.973Z,1001.91
2017-10-02T02:23:34.973Z,1001.94
2017-10-02T02:24:34.973Z,1001.94
2017-10-02T02:25:34.974Z,1001.95
2017-10-02T02:26:34.974Z,1001.93
2017-10-02T02:27:34.974Z,1001.93
2017-10-02T02:28:34.975Z,1001.95
2017-10-02T02:29:34.976Z,1001.90
2017-10-02T02:30:34.977Z,1002.00
2017-10-02T02:31:34.976Z,1001.95
2017-10-02T02:32:34.976Z,1001.92
2017-10-02T02:33:34.977Z,1001.89
2017-10-02T02:34:34.978Z,1001.91
2017-10-02T02:35:34.978Z,1001.94
2017-10-02T02:36:34.980Z,1001.98
2017-10-02T02:37:34.980Z,1002.04
2017-10-02T02:38:34.980Z,1002.08
2017-10-02T02:39:34.980Z,1002.08
2017-10-02T02:40:34.981Z,1002.12
2017-10-02T02:41:34.983Z,1002.10
2017-10-02T02:42:34.983Z,1002.13
2017-10-02T02:43:34.983Z,1002.13
2017-10-02T02:44:34.985Z,1002.24
2017-10-02T02:45:34.984Z,1002.21
2017-10-02T02:46:34.984Z,1002.21
2017-10-02T02:47:34.985Z,1002.23
2017-10-02T02:48:34.985Z,1002.17
2017-10-02T02:49:34.986Z,1002.18
2017-10-02T02:50:34.986Z,1002.15
2017-10-02T02:51:34.990Z,1002.21
2017-10-02T02:52:34.986Z,1002.16
2017-10-02T02:53:34.987Z,1002.15
2017-10-02T02:54:34.989Z,1002.11
2017-10-02T02:55:34.989Z,1002.13
2017-10-02T02:56:34.988Z,1002.13
2017-10-02T02:57:34.991Z,1002.08
2017-10-02T02:58:34.991Z,1002.06
2017-10-02T02:59:34.991Z,1002.11
2017-10-02T03:00:34.991Z,1002.14
2017-10-02T03:01:34.991Z,1002.12
2017-10-02T03:02:34.992Z,1002.10
2017-10-02T03:03:34.992Z,1002.08
2017-10-02T03:04:34.994Z,1002.10
2017-10-02T03:05:34.993Z,1002.12
2017-10-02T03:06:34.996Z,1002.09
2017-10-02T03:07:34.994Z,1002.19
2017-10-02T03:08:34.996Z,1002.19
2017-10-02T03:09:34.994Z,1002.17
2017-10-02T03:10:34.996Z,1002.17
2017-10-02T03:11:34.997Z,1002.13
2017-10-02T03:12:34.998Z,1002.11
2017-10-02T03:13:34.998Z,1002.09
2017-10-02T03:14:34.998Z,1002.02
2017-10-02T03:15:34.999Z,1001.93
2017-10-02T03:16:34.998Z,1001.91
2017-10-02T03:17:34.999Z,1001.82
2017-10-02T03:18:35.001Z,1001.76
2017-10-02T03:19:35.000Z,1001.81
2017-10-02T03:20:35.002Z,1001.85
2017-10-02T03:21:35.001Z,1001.99
2017-10-02T03:22:35.005Z,1002.03
2017-10-02T03:23:35.003Z,1001.91
2017-10-02T03:24:35.004Z,1001.94
2017-10-02T03:25:35.004Z,1002.00
2017-10-02T03:26:35.005Z,1001.96
2017-10-02T03:27:35.006Z,1002.00
2017-10-02T03:28:35.007Z,1001.99
2017-10-02T03:29:35.007Z,1002.02
2017-10-02T03:30:35.008Z,1002.03
2017-10-02T03:31:35.008Z,1002.00
2017-10-02T03:32:35.007Z,1001.89
2017-10-02T03:33:35.008Z,1001.88
2017-10-02T03:34:35.009Z,1001.86
2017-10-02T03:35:35.011Z,1001.85
2017-10-02T03:36:35.014Z,1001.81
2017-10-02T03:37:35.010Z,1001.88
2017-10-02T03:38:35.012Z,1001.89
2017-10-02T03:39:35.012Z,1001.92
2017-10-02T03:40:35.014Z,1001.86
2017-10-02T03:41:35.013Z,1001.86
2017-10-02T03:42:35.012Z,1001.83
2017-10-02T03:43:35.015Z,1001.80
2017-10-02T03:44:35.014Z,1001.80
2017-10-02T03:45:35.014Z,1001.86
2017-10-02T03:46:35.016Z,1001.79
2017-10-02T03:47:35.015Z,1001.79
2017-10-02T03:48:35.016Z,1001.75
2017-10-02T03:49:35.015Z,1001.77
2017-10-02T03:50:35.017Z,1001.76
2017-10-02T03:51:35.018Z,1001.76
2017-10-02T03:52:35.018Z,1001.76
2017-10-02T03:53:35.018Z,1001.73
2017-10-02T03:54:35.020Z,1001.70
2017-10-02T03:55:35.021Z,1001.73
2017-10-02T03:56:35.020Z,1001.76
2017-10-02T03:57:35.022Z,1001.79
2017-10-02T03:58:35.020Z,1001.81
2017-10-02T03:59:35.022Z,1001.87
2017-10-02T04:00:35.022Z,1001.75
2017-10-02T04:01:35.022Z,1001.78
2017-10-02T04:02:35.023Z,1001.73
2017-10-02T04:03:35.023Z,1001.73
2017-10-02T04:04:35.024Z,1001.69
2017-10-02T04:05:35.025Z,1001.67
2017-10-02T04:06:35.025Z,1001.70
2017-10-02T04:07:35.027Z,1001.67
2017-10-02T04:08:35.025Z,1001.71
2017-10-02T04:09:35.026Z,1001.69
2017-10-02T04:10:35.033Z,1001.73
2017-10-02T04:11:35.027Z,1001.70
2017-10-02T04:12:35.028Z,1001.64
2017-10-02T04:13:35.029Z,1001.65
2017-10-02T04:14:35.029Z,1001.63
2017-10-02T04:15:35.028Z,1001.63
2017-10-02T04:16:35.030Z,1001.60
2017-10-02T04:17:35.030Z,1001.54
2017-10-02T04:18:35.030Z,1001.55
2017-10-02T04:19:35.032Z,1001.58
2017-10-02T04:20:35.031Z,1001.58
2017-10-02T04:21:35.033Z,1001.59
2017-10-02T04:22:35.033Z,1001.56
2017-10-02T04:23:35.034Z,1001.49
2017-10-02T04:24:35.033Z,1001.49
2017-10-02T04:25:35.034Z,1001.46
2017-10-02T04:26:35.035Z,1001.51
2017-10-02T04:27:35.035Z,1001.52
2017-10-02T04:28:35.033Z,1001.48
2017-10-02T04:29:35.036Z,1001.53
2017-10-02T04:30:35.037Z,1001.53
2017-10-02T04:31:35.038Z,1001.48
2017-10-02T04:32:35.038Z,1001.45
2017-10-02T04:33:35.038Z,1001.48
2017-10-02T04:34:35.038Z,1001.43
2017-10-02T04:35:35.040Z,1001.50
2017-10-02T04:36:35.038Z,1001.46
2017-10-02T04:37:35.040Z,1001.48
2017-10-02T04:38:35.040Z,1001.48
2017-10-02T04:39:35.040Z,1001.45
2017-10-02T04:40:35.043Z,1001.42
2017-10-02T04:41:35.041Z,1001.42
2017-10-02T04:42:35.043Z,1001.43
2017-10-02T04:43:35.042Z,1001.40
2017-10-02T04:44:35.042Z,1001.34
2017-10-02T04:45:35.044Z,1001.34
2017-10-02T04:46:35.043Z,1001.42
2017-10-02T04:47:35.046Z,1001.40
2017-10-02T04:48:35.044Z,1001.47
2017-10-02T04:49:35.044Z,1001.45
2017-10-02T04:50:35.046Z,1001.39
2017-10-02T04:51:35.047Z,1001.42
2017-10-02T04:52:35.047Z,1001.41
2017-10-02T04:53:35.048Z,1001.33
2017-10-02T04:54:35.048Z,1001.26
2017-10-02T04:55:35.049Z,1001.24
2017-10-02T04:56:35.047Z,1001.23
2017-10-02T04:57:35.050Z,1001.25
2017-10-02T04:58:35.050Z,1001.22
2017-10-02T04:59:35.051Z,1001.15
2017-10-02T05:00:35.050Z,1001.10
2017-10-02T05:01:35.062Z,1001.11
2017-10-02T05:02:35.053Z,1001.15
2017-10-02T05:03:35.053Z,1001.15
2017-10-02T05:04:35.051Z,1001.22
2017-10-02T05:05:35.054Z,1001.10
2017-10-02T05:06:35.055Z,1001.21
2017-10-02T05:07:35.055Z,1001.24
2017-10-02T05:08:35.055Z,1001.25
2017-10-02T05:09:35.056Z,1001.26
2017-10-02T05:10:35.057Z,1001.25
2017-10-02T05:11:35.058Z,1001.24
2017-10-02T05:12:35.056Z,1001.16
2017-10-02T05:13:35.059Z,1001.13
2017-10-02T05:14:35.059Z,1001.11
2017-10-02T05:15:35.060Z,1001.15
2017-10-02T05:16:35.060Z,1001.07
2017-10-02T05:17:35.061Z,1001.00
2017-10-02T05:18:35.062Z,1001.03
2017-10-02T05:19:35.061Z,1001.00
2017-10-02T05:20:35.064Z,1001.03
2017-10-02T05:21:35.067Z,1001.03
2017-10-02T05:22:35.062Z,1001.04
2017-10-02T05:23:35.064Z,1001.01
2017-10-02T05:24:35.064Z,1000.95
2017-10-02T05:25:35.065Z,1001.01
2017-10-02T05:26:35.065Z,1001.00
2017-10-02T05:27:35.066Z,1001.03
2017-10-02T05:28:35.065Z,1000.94
2017-10-02T05:29:35.067Z,1000.97
2017-10-02T05:30:35.067Z,1000.94
2017-10-02T05:31:35.068Z,1001.03
2017-10-02T05:32:35.069Z,1000.97
2017-10-02T05:33:35.068Z,1001.03
2017-10-02T05:34:35.071Z,1000.99
2017-10-02T05:35:35.070Z,1000.99
2017-10-02T05:36:35.071Z,1000.98
2017-10-02T05:37:35.071Z,1001.00
2017-10-02T05:38:35.073Z,1001.04
2017-10-02T05:39:35.074Z,1000.93
2017-10-02T05:40:35.073Z,1000.97
2017-10-02T05:41:35.074Z,1001.00
2017-10-02T05:42:35.075Z,1001.00
2017-10-02T05:43:35.078Z,1000.98
2017-10-02T05:44:35.076Z,1000.90
2017-10-02T05:45:35.077Z,1000.95
2017-10-02T05:46:35.078Z,1000.98
2017-10-02T05:47:35.078Z,1000.91
2017-10-02T05:48:35.079Z,1000.87
2017-10-02T05:49:35.079Z,1000.87
2017-10-02T05:50:35.083Z,1000.88
2017-10-02T05:51:35.082Z,1000.83
2017-10-02T05:52:35.082Z,1000.83
2017-10-02T05:53:35.082Z,1000.87
2017-10-02T05:54:35.083Z,1000.88
2017-10-02T05:55:35.085Z,1000.85
2017-10-02T05:56:35.083Z,1000.85
2017-10-02T05:57:35.086Z,1000.79
2017-10-02T05:58:35.086Z,1000.76
2017-10-02T05:59:35.088Z,1000.83
2017-10-02T06:00:35.087Z,1000.77
2017-10-02T06:01:35.087Z,1000.85
2017-10-02T06:02:35.090Z,1000.76
2017-10-02T06:03:35.088Z,1000.82
2017-10-02T06:04:35.091Z,1000.90
2017-10-02T06:05:35.092Z,1000.91
2017-10-02T06:06:35.092Z,1000.88
2017-10-02T06:07:35.092Z,1000.92
2017-10-02T06:08:35.091Z,1000.93
2017-10-02T06:09:35.096Z,1000.92
2017-10-02T06:10:35.094Z,1001.01
2017-10-02T06:11:35.096Z,1000.92
2017-10-02T06:12:35.095Z,1001.01
2017-10-02T06:13:35.096Z,1001.01
2017-10-02T06:14:35.096Z,1001.02
2017-10-02T06:15:35.098Z,1001.04
2017-10-02T06:16:35.099Z,1000.98
2017-10-02T06:17:35.100Z,1001.08
2017-10-02T06:18:35.100Z,1001.04
2017-10-02T06:19:35.100Z,1001.01
2017-10-02T06:20:35.100Z,1001.00
2017-10-02T06:21:35.101Z,1001.06
2017-10-02T06:22:35.103Z,1001.01
2017-10-02T06:23:35.104Z,1000.96
2017-10-02T06:24:35.103Z,1000.93
2017-10-02T06:25:35.105Z,1000.97
2017-10-02T06:26:35.106Z,1000.97
2017-10-02T06:27:35.106Z,1000.94
2017-10-02T06:28:35.105Z,1001.04
2017-10-02T06:29:35.106Z,1001.00
2017-10-02T06:30:35.109Z,1000.98
2017-10-02T06:31:35.110Z,1000.94
2017-10-02T06:32:35.109Z,1000.98
2017-10-02T06:33:35.109Z,1000.96
2017-10-02T06:34:35.112Z,1000.97
2017-10-02T06:35:35.111Z,1000.95
2017-10-02T06:36:35.112Z,1000.92
2017-10-02T06:37:35.112Z,1000.96
2017-10-02T06:38:35.115Z,1000.94
2017-10-02T06:39:35.115Z,1000.87
2017-10-02T06:40:35.114Z,1000.87
2017-10-02T06:41:35.115Z,1000.92
2017-10-02T06:42:35.120Z,1000.90
2017-10-02T06:43:35.120Z,1000.96
2017-10-02T06:44:35.117Z,1000.95
2017-10-02T06:45:35.119Z,1000.96
2017-10-02T06:46:35.120Z,1000.93
2017-10-02T06:47:35.120Z,1000.90
2017-10-02T06:48:35.122Z,1000.90
2017-10-02T06:49:35.122Z,1000.90
2017-10-02T06:50:35.123Z,1000.91
2017-10-02T06:51:35.123Z,1000.92
2017-10-02T06:52:35.125Z,1000.87
2017-10-02T06:53:35.124Z,1000.88
2017-10-02T06:54:35.127Z,1000.90
2017-10-02T06:55:35.127Z,1000.97
2017-10-02T06:56:35.127Z,1000.85
2017-10-02T06:57:35.130Z,1000.88
2017-10-02T06:58:35.130Z,1000.90
2017-10-02T06:59:35.131Z,1000.88
2017-10-02T07:00:35.131Z,1000.89
2017-10-02T07:01:35.133Z,1000.86
2017-10-02T07:02:35.134Z,1000.88
2017-10-02T07:03:35.136Z,1000.81
2017-10-02T07:04:35.135Z,1000.83
2017-10-02T07:05:35.136Z,1000.84
2017-10-02T07:06:35.136Z,1000.83
2017-10-02T07:07:35.139Z,1000.80
2017-10-02T07:08:35.139Z,1000.85
2017-10-02T07:09:35.140Z,1000.85
2017-10-02T07:10:35.142Z,1000.82
2017-10-02T07:11:35.142Z,1000.77
2017-10-02T07:12:35.142Z,1000.78
2017-10-02T07:13:35.143Z,1000.75
2017-10-02T07:14:35.146Z,1000.76
2017-10-02T07:15:35.145Z,1000.74
2017-10-02T07:16:35.146Z,1000.77
2017-10-02T07:17:35.148Z,1000.82
2017-10-02T07:18:35.149Z,1000.78
2017-10-02T07:19:35.149Z,1000.71
2017-10-02T07:20:35.150Z,1000.75
2017-10-02T07:21:35.152Z,1000.79
2017-10-02T07:22:35.154Z,1000.77
2017-10-02T07:23:35.154Z,1000.77
2017-10-02T07:24:35.154Z,1000.69
2017-10-02T07:25:35.156Z,1000.71
2017-10-02T07:26:35.157Z,1000.69
2017-10-02T07:27:35.159Z,1000.61
2017-10-02T07:28:35.158Z,1000.58
2017-10-02T07:29:35.160Z,1000.55
2017-10-02T07:30:35.163Z,1000.54
2017-10-02T07:31:35.163Z,1000.54
2017-10-02T07:32:35.165Z,1000.52
2017-10-02T07:33:35.166Z,1000.48
2017-10-02T07:34:35.168Z,1000.44
2017-10-02T07:35:35.170Z,1000.46
2017-10-02T07:36:35.169Z,1000.36
2017-10-02T07:37:35.171Z,1000.39
2017-10-02T07:38:35.175Z,1000.33
2017-10-02T07:39:35.172Z,1000.40
2017-10-02T07:40:35.173Z,1000.37
2017-10-02T07:41:35.174Z,1000.43
2017-10-02T07:42:35.178Z,1000.42
2017-10-02T07:43:35.178Z,1000.45
2017-10-02T07:44:35.179Z,1000.45
2017-10-02T07:45:35.179Z,1000.43
2017-10-02T07:46:35.182Z,1000.44
2017-10-02T07:47:35.184Z,1000.48
2017-10-02T07:48:35.183Z,1000.51
2017-10-02T07:49:35.187Z,1000.54
2017-10-02T07:50:35.188Z,1000.57
2017-10-02T07:51:35.189Z,1000.62
2017-10-02T07:52:35.189Z,1000.65
2017-10-02T07:53:35.191Z,1000.69
2017-10-02T07:54:35.193Z,1000.67
2017-10-02T07:55:35.193Z,1000.64
2017-10-02T07:56:35.194Z,1000.58
2017-10-02T07:57:35.196Z,1000.62
2017-10-02T07:58:35.200Z,1000.61
2017-10-02T07:59:35.200Z,1000.61
2017-10-02T08:00:35.199Z,1000.66
2017-10-02T08:01:35.201Z,1000.62
2017-10-02T08:02:35.203Z,1000.65
2017-10-02T08:03:35.206Z,1000.64
2017-10-02T08:04:35.208Z,1000.63
2017-10-02T08:05:35.208Z,1000.66
2017-10-02T08:06:35.210Z,1000.66
2017-10-02T08:07:35.212Z,1000.77
2017-10-02T08:08:35.212Z,1000.86
2017-10-02T08:09:35.215Z,1000.81
2017-10-02T08:10:35.217Z,1000.76
2017-10-02T08:11:35.217Z,1000.76
2017-10-02T08:12:35.219Z,1000.82
2017-10-02T08:13:35.220Z,1000.79
2017-10-02T08:14:35.229Z,1000.82
2017-10-02T08:15:35.228Z,1000.83
2017-10-02T08:16:35.226Z,1000.82
2017-10-02T08:17:35.228Z,1000.76
2017-10-02T08:18:35.231Z,1000.80
2017-10-02T08:19:35.230Z,1000.80
2017-10-02T08:20:35.233Z,1000.75
2017-10-02T08:21:35.234Z,1000.74
2017-10-02T08:22:35.236Z,1000.74
2017-10-02T08:23:35.239Z,1000.71
2017-10-02T08:24:35.240Z,1000.76
2017-10-02T08:25:35.241Z,1000.73
2017-10-02T08:26:35.245Z,1000.80
2017-10-02T08:27:35.246Z,1000.83
2017-10-02T08:28:35.246Z,1000.82
2017-10-02T08:29:35.248Z,1000.83
2017-10-02T08:30:35.252Z,1000.88
2017-10-02T08:31:35.254Z,1000.85
2017-10-02T08:32:35.254Z,1000.86
2017-10-02T08:33:35.258Z,1000.88
2017-10-02T08:34:35.260Z,1001.01
2017-10-02T08:35:35.262Z,1000.97
2017-10-02T08:36:35.264Z,1001.00
2017-10-02T08:37:35.265Z,1001.07
2017-10-02T08:38:35.268Z,1001.12
2017-10-02T08:39:35.269Z,1001.06
2017-10-02T08:40:35.272Z,1001.01
2017-10-02T08:41:35.273Z,1000.97
2017-10-02T08:42:35.275Z,1000.95
2017-10-02T08:43:35.279Z,1000.94
2017-10-02T08:44:35.280Z,1000.97
2017-10-02T08:45:35.282Z,1001.00
2017-10-02T08:46:35.285Z,1001.04
2017-10-02T08:47:35.288Z,1001.08
2017-10-02T08:48:35.288Z,1001.11
2017-10-02T08:49:35.292Z,1001.10
2017-10-02T08:50:35.293Z,1001.11
2017-10-02T08:51:35.297Z,1001.12
2017-10-02T08:52:35.297Z,1001.11
2017-10-02T08:53:35.300Z,1001.14
2017-10-02T08:54:35.302Z,1001.14
2017-10-02T08:55:35.306Z,1001.20
2017-10-02T08:56:35.307Z,1001.23
2017-10-02T08:57:35.309Z,1001.19
2017-10-02T08:58:35.311Z,1001.19
2017-10-02T08:59:35.314Z,1001.14
2017-10-02T09:00:35.316Z,1001.12
2017-10-02T09:01:35.318Z,1001.13
2017-10-02T09:02:35.320Z,1001.16
2017-10-02T09:03:35.323Z,1001.24
2017-10-02T09:04:35.323Z,1001.26
2017-10-02T09:05:35.327Z,1001.26
2017-10-02T09:06:35.330Z,1001.26
2017-10-02T09:07:35.333Z,1001.22
2017-10-02T09:08:35.334Z,1001.23
2017-10-02T09:09:35.335Z,1001.22
2017-10-02T09:10:35.338Z,1001.25
2017-10-02T09:11:35.342Z,1001.16
2017-10-02T09:12:35.343Z,1001.20
2017-10-02T09:13:35.344Z,1001.20
2017-10-02T09:14:35.346Z,1001.15
2017-10-02T09:15:35.351Z,1001.17
2017-10-02T09:16:35.352Z,1001.21
2017-10-02T09:17:35.357Z,1001.35
2017-10-02T09:18:35.357Z,1001.26
2017-10-02T09:19:35.359Z,1001.19
2017-10-02T09:20:35.363Z,1001.08
2017-10-02T09:21:35.364Z,1001.03
2017-10-02T09:22:35.367Z,1001.08
2017-10-02T09:23:35.371Z,1001.02
2017-10-02T09:24:35.371Z,1001.07
2017-10-02T09:25:35.375Z,1001.13
2017-10-02T09:26:35.376Z,1001.22
2017-10-02T09:27:35.380Z,1001.00
2017-10-02T09:28:35.382Z,1001.03
2017-10-02T09:29:35.385Z,1001.07
2017-10-02T09:30:35.388Z,1000.95
2017-10-02T09:31:35.390Z,1000.86
2017-10-02T09:32:35.392Z,1000.91
2017-10-02T09:33:35.395Z,1000.94
2017-10-02T09:34:35.399Z,1000.87
2017-10-02T09:35:35.402Z,1000.88
2017-10-02T09:36:35.403Z,1000.87
2017-10-02T09:37:35.409Z,1000.84
2017-10-02T09:38:35.411Z,1000.85
2017-10-02T09:39:35.425Z,1000.82
2017-10-02T09:40:35.418Z,1000.85
2017-10-02T09:41:35.421Z,1000.79
2017-10-02T09:42:35.425Z,1000.80
2017-10-02T09:43:35.428Z,1000.75
2017-10-02T09:44:35.430Z,1000.71
2017-10-02T09:45:35.435Z,1000.63
2017-10-02T09:46:35.439Z,1000.66
2017-10-02T09:47:35.442Z,1000.79
2017-10-02T09:48:35.445Z,1000.67
2017-10-02T09:49:35.450Z,1000.82
2017-10-02T09:50:35.452Z,1000.71
2017-10-02T09:51:35.458Z,1000.74
2017-10-02T09:52:35.460Z,1000.73
2017-10-02T09:53:35.464Z,1000.74
2017-10-02T09:54:35.468Z,1000.75
2017-10-02T09:55:35.475Z,1000.79
2017-10-02T09:56:35.474Z,1000.74
2017-10-02T09:57:35.478Z,1000.74
2017-10-02T09:58:35.482Z,1000.72
2017-10-02T09:59:35.486Z,1000.68
2017-10-02T10:00:35.490Z,1000.71
2017-10-02T10:01:35.493Z,1000.68
2017-10-02T10:02:35.497Z,1000.72
2017-10-02T10:03:35.505Z,1000.73
2017-10-02T10:04:35.504Z,1000.71
2017-10-02T10:05:35.509Z,1000.68
2017-10-02T10:06:35.512Z,1000.84
2017-10-02T10:07:35.517Z,1000.81
2017-10-02T10:08:35.520Z,1000.73
2017-10-02T10:09:35.524Z,1000.89
2017-10-02T10:10:35.528Z,1000.85
2017-10-02T10:11:35.531Z,1001.29
2017-10-02T10:12:35.536Z,1001.03
2017-10-02T10:13:35.540Z,1001.42
2017-10-02T10:14:35.544Z,1001.61
2017-10-02T10:15:35.549Z,1001.19
2017-10-02T10:16:35.550Z,1001.07
2017-10-02T10:17:35.570Z,1001.48
2017-10-02T10:18:35.560Z,1001.11
2017-10-02T10:19:35.566Z,1001.09
2017-10-02T10:20:35.569Z,1001.17
2017-10-02T10:21:35.575Z,1001.06
2017-10-02T10:22:35.580Z,1001.05
2017-10-02T10:23:35.587Z,1001.15
2017-10-02T10:24:35.590Z,1001.79
2017-10-02T10:25:35.599Z,1001.01
2017-10-02T10:26:35.601Z,1001.40
2017-10-02T10:27:35.606Z,1001.08
2017-10-02T10:28:35.612Z,1001.37
2017-10-02T10:29:35.616Z,1001.25
2017-10-02T10:30:35.623Z,1001.32
2017-10-02T10:31:35.630Z,1001.33
2017-10-02T10:32:35.635Z,1001.32
2017-10-02T10:33:35.640Z,1001.18
2017-10-02T10:34:35.647Z,1001.14
2017-10-02T10:35:35.653Z,1001.16
2017-10-02T10:36:35.657Z,1001.14
2017-10-02T10:37:35.663Z,1001.25
2017-10-02T10:38:35.670Z,1001.19
2017-10-02T10:39:35.678Z,1001.25
2017-10-02T10:40:35.681Z,1001.26
2017-10-02T10:41:35.686Z,1001.20
2017-10-02T10:42:35.695Z,1001.12
2017-10-02T10:43:35.703Z,1001.15
2017-10-02T10:44:35.706Z,1001.11
2017-10-02T10:45:35.710Z,1001.08
2017-10-02T10:46:35.716Z,1001.19
2017-10-02T10:47:35.724Z,1001.17
2017-10-02T10:48:35.727Z,1001.15
2017-10-02T10:49:35.735Z,1001.11
2017-10-02T10:50:35.742Z,1001.14
2017-10-02T10:51:35.747Z,1001.11
2017-10-02T10:52:35.751Z,1001.17
2017-10-02T10:53:35.758Z,1001.12
2017-10-02T10:54:35.765Z,1001.19
2017-10-02T10:55:35.769Z,1001.12
2017-10-02T10:56:35.774Z,1001.03
2017-10-02T10:57:35.780Z,1000.96
2017-10-02T10:58:35.785Z,1001.03
2017-10-02T10:59:35.791Z,1001.04
2017-10-02T11:00:35.795Z,1001.01
2017-10-02T11:01:35.801Z,1001.06
2017-10-02T11:02:35.808Z,1000.94
2017-10-02T11:03:35.811Z,1001.01
2017-10-02T11:04:35.817Z,1000.95
2017-10-02T11:05:35.821Z,1000.94
2017-10-02T11:06:35.827Z,1000.96
2017-10-02T11:07:35.833Z,1001.02
2017-10-02T11:08:35.840Z,1000.96
2017-10-02T11:09:35.845Z,1001.00
2017-10-02T11:10:35.848Z,1001.00
2017-10-02T11:11:35.854Z,1001.12
2017-10-02T11:12:35.856Z,1000.99
2017-10-02T11:13:35.861Z,1000.99
2017-10-02T11:14:35.866Z,1000.95
2017-10-02T11:15:35.871Z,1000.99
2017-10-02T11:16:35.893Z,1000.94
2017-10-02T11:17:35.880Z,1000.98
2017-10-02T11:18:35.885Z,1000.99
2017-10-02T11:19:35.888Z,1000.97
2017-10-02T11:20:35.894Z,1000.99
2017-10-02T11:21:35.896Z,1001.07
2017-10-02T11:22:35.904Z,1001.15
2017-10-02T11:23:35.906Z,1001.19
2017-10-02T11:24:35.910Z,1001.15
2017-10-02T11:25:35.915Z,1001.22
2017-10-02T11:26:35.918Z,1001.36
2017-10-02T11:27:35.923Z,1001.38
2017-10-02T11:28:35.927Z,1001.34
2017-10-02T11:29:35.930Z,1001.31
2017-10-02T11:30:35.934Z,1001.30
2017-10-02T11:31:35.938Z,1001.20
2017-10-02T11:32:35.941Z,1001.11
2017-10-02T11:33:35.945Z,1001.22
2017-10-02T11:34:35.950Z,1001.22
2017-10-02T11:35:35.954Z,1001.19
2017-10-02T11:36:35.957Z,1001.16
2017-10-02T11:37:35.962Z,1001.12
2017-10-02T11:38:35.966Z,1001.14
2017-10-02T11:39:35.973Z,1001.10
2017-10-02T11:40:35.972Z,1001.12
2017-10-02T11:41:35.976Z,1001.04
2017-10-02T11:42:35.986Z,1000.99
2017-10-02T11:43:35.984Z,1001.01
2017-10-02T11:44:35.988Z,1001.04
2017-10-02T11:45:35.990Z,1001.05
2017-10-02T11:46:35.996Z,1001.04
2017-10-02T11:47:35.997Z,1001.06
2017-10-02T11:48:36.000Z,1001.11
2017-10-02T11:49:36.007Z,1001.22
2017-10-02T11:50:36.009Z,1001.19
2017-10-02T11:51:36.014Z,1001.25
2017-10-02T11:52:36.019Z,1001.29
2017-10-02T11:53:36.020Z,1001.29
2017-10-02T11:54:36.023Z,1001.28
2017-10-02T11:55:36.028Z,1001.38
2017-10-02T11:56:36.031Z,1001.42
2017-10-02T11:57:36.034Z,1001.44
2017-10-02T11:58:36.039Z,1001.43
2017-10-02T11:59:36.043Z,1001.40
2017-10-02T12:00:36.046Z,1001.43
2017-10-02T12:01:36.050Z,1001.50
2017-10-02T12:02:36.054Z,1001.42
2017-10-02T12:03:36.059Z,1001.38
2017-10-02T12:04:36.062Z,1001.38
2017-10-02T12:05:36.067Z,1001.38